createdAt,value
2024-05-09T00:00:01.686Z,28.6
2024-05-09T00:05:01.441Z,28.7
2024-05-09T00:10:02.128Z,28.8
2024-05-09T00:15:01.591Z,28.9
2024-05-09T00:20:01.351Z,29
2024-05-09T00:25:01.852Z,29.1
2024-05-09T00:30:01.495Z,29.2
2024-05-09T00:35:02.147Z,29.3
2024-05-09T00:40:01.717Z,29.4
2024-05-09T00:45:01.346Z,29.6
2024-05-09T00:50:02.064Z,29.7
2024-05-09T00:55:01.654Z,29.8
2024-05-09T01:00:01.416Z,29.8
2024-05-09T01:05:02.602Z,29.8
2024-05-09T01:10:02.004Z,30.1
2024-05-09T01:15:01.672Z,30.4
2024-05-09T01:20:01.346Z,30.6
2024-05-09T01:25:02.005Z,30.6
2024-05-09T01:30:01.664Z,30.8
2024-05-09T01:35:01.383Z,30.9
2024-05-09T01:40:02.154Z,31
2024-05-09T01:45:01.743Z,31.2
2024-05-09T01:50:01.726Z,31.3
2024-05-09T01:55:03.481Z,31.5
2024-05-09T02:00:01.946Z,31.6
2024-05-09T02:05:01.646Z,32.1
2024-05-09T02:10:01.269Z,32.1
2024-05-09T02:15:01.954Z,32.3
2024-05-09T02:20:01.620Z,32.2
2024-05-09T02:25:01.536Z,32.2
2024-05-09T02:30:01.182Z,32.1
2024-05-09T02:35:01.876Z,32.4
2024-05-09T02:40:01.521Z,32.1
2024-05-09T02:45:01.220Z,31.9
2024-05-09T02:50:01.884Z,32.1
2024-05-09T02:55:01.560Z,32.1
2024-05-09T03:00:01.240Z,32.4
2024-05-09T03:05:01.981Z,32.6
2024-05-09T03:10:01.639Z,33
2024-05-09T03:15:01.387Z,32.7
2024-05-09T03:20:01.148Z,32.7
2024-05-09T03:25:01.788Z,32.6
2024-05-09T03:30:01.483Z,32.5
2024-05-09T03:35:01.158Z,32.8
2024-05-09T03:40:02.076Z,33.2
2024-05-09T03:45:01.912Z,32.2
2024-05-09T03:50:01.623Z,32.3
2024-05-09T03:55:01.302Z,31.8
2024-05-09T04:00:02.116Z,31.5
2024-05-09T04:05:02.057Z,31.6
2024-05-09T04:10:01.742Z,31.5
2024-05-09T04:15:01.391Z,31.4
2024-05-09T04:20:02.135Z,31.7
2024-05-09T04:25:01.764Z,31.6
2024-05-09T04:30:01.397Z,31.4
2024-05-09T04:35:01.216Z,31.6
2024-05-09T04:40:02.262Z,31.4
2024-05-09T04:45:01.559Z,31.2
2024-05-09T04:50:01.251Z,31.7
2024-05-09T04:55:01.832Z,31.5
2024-05-09T05:00:01.519Z,31.4
2024-05-09T05:05:01.263Z,31.4
2024-05-09T05:10:01.866Z,31.8
2024-05-09T05:15:01.565Z,32
2024-05-09T05:20:01.342Z,31.4
2024-05-09T05:25:01.848Z,31.2
2024-05-09T05:30:01.559Z,31.4
2024-05-09T05:35:01.314Z,31.4
2024-05-09T05:40:01.916Z,31.3
2024-05-09T05:45:01.606Z,31.3
2024-05-09T05:50:01.384Z,31.2
2024-05-09T05:55:01.992Z,31.4
2024-05-09T06:00:01.703Z,31.3
2024-05-09T06:05:01.822Z,31.3
2024-05-09T06:10:01.416Z,31.2
2024-05-09T06:15:02.085Z,31.1
2024-05-09T06:20:01.808Z,31.2
2024-05-09T06:25:01.498Z,31.6
2024-05-09T06:30:01.194Z,31.4
2024-05-09T06:35:01.866Z,31.6
2024-05-09T06:40:01.527Z,31.5
2024-05-09T06:45:01.205Z,31.6
2024-05-09T06:50:02.019Z,31.7
2024-05-09T06:55:01.693Z,31.6
2024-05-09T07:00:01.370Z,31.9
2024-05-09T07:05:01.783Z,31.9
2024-05-09T07:10:01.373Z,31.9
2024-05-09T07:15:02.079Z,31.6
2024-05-09T07:20:01.805Z,31.6
2024-05-09T07:25:01.406Z,31.6
2024-05-09T07:30:01.188Z,31.7
2024-05-09T07:35:01.921Z,32.1
2024-05-09T07:40:01.646Z,31.7
2024-05-09T08:15:01.350Z,25.8
2024-05-09T08:20:03.048Z,25.8
2024-05-09T08:25:01.649Z,25.6
2024-05-09T08:30:01.194Z,26.1
2024-05-09T08:35:01.868Z,26.3
2024-05-09T08:40:01.525Z,26
2024-05-09T08:45:02.071Z,25.9
2024-05-09T08:50:01.861Z,26.1
2024-05-09T08:55:01.442Z,26.1
2024-05-09T09:00:02.077Z,26.1
2024-05-09T09:05:01.777Z,25.9
2024-05-09T09:10:01.433Z,25.9
2024-05-09T09:15:02.091Z,26
2024-05-09T09:20:01.906Z,26.1
2024-05-09T09:25:01.465Z,26.2
2024-05-09T09:30:01.129Z,26.2
2024-05-09T09:35:01.873Z,26.4
2024-05-09T09:40:01.902Z,26.4
2024-05-09T09:45:04.460Z,26.7
2024-05-09T09:50:02.250Z,26.6
2024-05-09T09:55:01.486Z,26.7
2024-05-09T10:00:01.239Z,26.7
2024-05-09T10:05:02.022Z,26.9
2024-05-09T10:10:01.624Z,26.8
2024-05-09T10:15:01.321Z,26.8
2024-05-09T10:20:02.051Z,26.7
2024-05-09T10:25:04.364Z,26.7
2024-05-09T10:30:02.852Z,26.7
2024-05-09T10:35:02.124Z,26.8
2024-05-09T10:40:01.772Z,26.8
2024-05-09T10:45:01.434Z,26.8
2024-05-09T10:50:01.199Z,26.8
2024-05-09T10:55:04.882Z,26.8
2024-05-09T11:00:01.954Z,26.9
2024-05-09T11:05:01.813Z,27
2024-05-09T11:10:01.435Z,26.8
2024-05-09T11:15:01.144Z,26.6
2024-05-09T11:20:01.349Z,26.6
2024-05-09T11:25:02.114Z,26.8
2024-05-09T11:30:01.934Z,26.9
2024-05-09T11:35:01.649Z,26.7
2024-05-09T11:40:01.486Z,26.6
2024-05-09T11:45:01.369Z,26.6
2024-05-09T11:50:01.343Z,26.8
2024-05-09T11:55:01.934Z,26.6
2024-05-09T12:00:01.782Z,26.4
2024-05-09T12:05:02.116Z,26.3
2024-05-09T12:10:02.046Z,26.4
2024-05-09T12:15:01.947Z,26.4
2024-05-09T12:20:01.705Z,26.5
2024-05-09T12:25:01.402Z,26.5
2024-05-09T12:30:01.152Z,26.4
2024-05-09T12:35:02.079Z,26.6
2024-05-09T12:40:02.188Z,26.5
2024-05-09T12:45:02.040Z,26.6
2024-05-09T12:50:01.813Z,26.6
2024-05-09T12:55:01.538Z,26.6
2024-05-09T13:00:01.428Z,26.6
2024-05-09T13:05:01.228Z,26.6
2024-05-09T13:10:01.982Z,26.6
2024-05-09T13:15:01.669Z,26.6
2024-05-09T13:20:01.368Z,26.6
2024-05-09T13:25:02.084Z,26.6
2024-05-09T13:30:01.786Z,26.7
2024-05-09T13:35:01.462Z,26.6
2024-05-09T13:40:01.195Z,26.6
2024-05-09T13:45:01.843Z,26.6
2024-05-09T13:50:01.943Z,26.6
2024-05-09T13:55:01.816Z,26.6
2024-05-09T14:00:01.470Z,26.6
2024-05-09T14:05:01.295Z,26.6
2024-05-09T14:10:01.959Z,26.6
2024-05-09T14:15:01.714Z,26.6
2024-05-09T14:20:01.387Z,26.6
2024-05-09T14:25:02.099Z,26.6
2024-05-09T14:30:01.740Z,26.4
2024-05-09T14:35:01.484Z,26.4
2024-05-09T14:40:01.171Z,26.6
2024-05-09T14:45:01.943Z,26.7
2024-05-09T14:50:01.703Z,26.8
2024-05-09T14:55:01.481Z,26.9
2024-05-09T15:00:01.130Z,26.8
2024-05-09T15:05:02.024Z,26.8
2024-05-09T15:10:01.209Z,26.8
2024-05-09T15:15:01.910Z,26.8
2024-05-09T15:20:01.705Z,26.7
2024-05-09T15:25:01.310Z,26.8
2024-05-09T15:30:01.991Z,26.8
2024-05-09T15:35:01.650Z,26.7
2024-05-09T15:40:01.417Z,26.8
2024-05-09T15:45:01.117Z,26.7
2024-05-09T15:50:01.861Z,26.7
2024-05-09T15:55:01.475Z,26.6
2024-05-09T16:00:01.199Z,26.6
2024-05-09T16:05:02.007Z,26.5
2024-05-09T16:10:01.682Z,26.5
2024-05-09T16:15:01.357Z,26.5
2024-05-09T16:20:02.844Z,26.4
2024-05-09T16:25:01.366Z,26.4
2024-05-09T16:30:02.094Z,26.4
2024-05-09T16:35:01.770Z,26.4
2024-05-09T16:40:01.142Z,26.4
2024-05-09T16:45:01.526Z,26.4
2024-05-09T16:50:01.859Z,26.4
2024-05-09T16:55:01.163Z,26.4
2024-05-09T17:00:01.413Z,26.4
2024-05-09T17:05:02.002Z,26.4
2024-05-09T17:10:02.379Z,26.4
2024-05-09T17:15:01.437Z,26.4
2024-05-09T17:20:01.698Z,26.4
2024-05-09T17:25:02.089Z,26.4
2024-05-09T17:30:01.320Z,26.4
2024-05-09T17:35:01.660Z,26.4
2024-05-09T17:40:02.086Z,26.4
2024-05-09T17:45:01.284Z,26.4
2024-05-09T17:50:01.632Z,26.4
2024-05-09T17:55:01.989Z,26.4
2024-05-09T18:00:01.117Z,26.5
2024-05-09T18:05:01.701Z,26.5
2024-05-09T18:10:01.912Z,26.7
2024-05-09T18:15:01.177Z,26.7
2024-05-09T18:20:01.641Z,26.7
2024-05-09T18:25:01.844Z,26.7
2024-05-09T18:30:02.054Z,26.8
2024-05-09T18:35:01.457Z,26.8
2024-05-09T18:40:01.796Z,26.8
2024-05-09T18:45:02.080Z,26.8
2024-05-09T18:50:01.453Z,26.7
2024-05-09T18:55:01.763Z,26.7
2024-05-09T19:00:01.125Z,26.7
2024-05-09T19:05:01.469Z,26.7
2024-05-09T19:10:01.785Z,26.7
2024-05-09T19:15:01.131Z,26.7
2024-05-09T19:20:01.460Z,26.6
2024-05-09T19:25:01.796Z,26.7
2024-05-09T19:30:03.085Z,26.6
2024-05-09T19:35:01.407Z,26.7
2024-05-09T19:40:01.750Z,26.6
2024-05-09T19:45:02.085Z,26.6
2024-05-09T19:50:01.506Z,26.5
2024-05-09T19:55:01.677Z,26.5
2024-05-09T20:00:01.984Z,26.5
2024-05-09T20:05:01.451Z,26.5
2024-05-09T20:10:01.632Z,26.5
2024-05-09T20:15:01.987Z,26.6
2024-05-09T20:20:01.392Z,26.6
2024-05-09T20:25:01.682Z,26.6
2024-05-09T20:30:01.988Z,26.5
2024-05-09T20:35:01.266Z,26.5
2024-05-09T20:40:01.675Z,26.5
2024-05-09T20:45:02.023Z,26.4
2024-05-09T20:50:01.390Z,26.5
2024-05-09T20:55:01.655Z,26.4
2024-05-09T21:00:01.934Z,26.4
2024-05-09T21:05:01.346Z,26.4
2024-05-09T21:10:01.684Z,26.4
2024-05-09T21:15:01.949Z,26.4
2024-05-09T21:20:01.271Z,26.4
2024-05-09T21:25:01.621Z,26.4
2024-05-09T21:30:01.960Z,26.4
2024-05-09T21:35:01.178Z,26.9
2024-05-09T21:40:01.609Z,27.1
2024-05-09T21:45:01.784Z,27.1
2024-05-09T21:50:01.123Z,27.1
2024-05-09T21:55:01.456Z,27.1
2024-05-09T22:00:01.756Z,27.1
2024-05-09T22:05:02.210Z,27.1
2024-05-09T22:10:01.353Z,27.1
2024-05-09T22:15:01.578Z,27
2024-05-09T22:20:01.306Z,27.1
2024-05-09T22:25:01.926Z,27.1
2024-05-09T22:30:02.040Z,27.1
2024-05-09T22:35:01.896Z,27.1
2024-05-09T22:40:03.203Z,27.1
2024-05-09T22:45:01.840Z,27.1
2024-05-09T22:50:01.556Z,27.1
2024-05-09T22:55:01.272Z,27.1
2024-05-09T23:00:01.824Z,27.2
2024-05-09T23:05:01.587Z,27.2
2024-05-09T23:10:01.251Z,27.2
2024-05-09T23:15:01.913Z,27.2
2024-05-09T23:20:01.592Z,27.2
2024-05-09T23:25:01.458Z,27.2
2024-05-09T23:30:01.170Z,27.3
2024-05-09T23:35:01.938Z,27.4
2024-05-09T23:40:01.209Z,27.5
2024-05-09T23:45:01.846Z,27.6
2024-05-09T23:50:01.625Z,27.7
2024-05-09T23:55:01.668Z,27.9
